createdAt,value
2019-06-27T00:00:13.418Z,-79
2019-06-27T00:01:15.905Z,-79
2019-06-27T00:02:14.845Z,-78
2019-06-27T00:03:12.829Z,-79
2019-06-27T00:04:12.931Z,-79
2019-06-27T00:05:18.588Z,-80
2019-06-27T00:06:17.960Z,-79
2019-06-27T00:07:14.754Z,-79
2019-06-27T00:08:14.546Z,-80
2019-06-27T00:10:26.456Z,-79
2019-06-27T00:11:27.176Z,-78
2019-06-27T00:12:28.937Z,-79
2019-06-27T00:13:33.047Z,-80
2019-06-27T00:14:33.841Z,-79
2019-06-27T00:15:34.498Z,-79
2019-06-27T00:16:49.502Z,-79
2019-06-27T00:17:48.052Z,-79
2019-06-27T00:18:42.892Z,-79
2019-06-27T00:19:50.572Z,-79
2019-06-27T00:20:49.172Z,-79
2019-06-27T00:23:08.380Z,-79
2019-06-27T00:24:07.042Z,-79
2019-06-27T00:25:16.740Z,-79
2019-06-27T00:26:15.979Z,-79
2019-06-27T00:27:19.417Z,-79
2019-06-27T00:28:20.944Z,-80
2019-06-27T00:29:20.625Z,-79
2019-06-27T00:30:28.684Z,-79
2019-06-27T00:31:25.905Z,-79
2019-06-27T00:32:31.372Z,-79
2019-06-27T00:33:31.734Z,-80
2019-06-27T00:34:34.994Z,-78
2019-06-27T00:35:34.053Z,-79
2019-06-27T00:37:44.981Z,-79
2019-06-27T00:38:43.490Z,-79
2019-06-27T00:39:44.317Z,-79
2019-06-27T00:40:43.534Z,-79
2019-06-27T00:41:42.136Z,-79
2019-06-27T00:42:39.934Z,-79
2019-06-27T00:43:42.410Z,-79
2019-06-27T00:44:37.437Z,-78
2019-06-27T00:45:37.422Z,-79
2019-06-27T00:46:41.074Z,-79
2019-06-27T00:47:41.982Z,-79
2019-06-27T00:54:03.547Z,-79
2019-06-27T00:55:14.348Z,-79
2019-06-27T00:56:15.061Z,-78
2019-06-27T00:57:14.869Z,-79
2019-06-27T00:58:15.350Z,-79
2019-06-27T00:59:16.508Z,-79
2019-06-27T01:00:21.522Z,-80
2019-06-27T01:01:25.600Z,-79
2019-06-27T01:02:23.547Z,-79
2019-06-27T01:08:56.242Z,-79
2019-06-27T01:10:01.373Z,-79
2019-06-27T01:11:00.613Z,-79
2019-06-27T01:12:02.907Z,-79
2019-06-27T01:13:07.717Z,-79
2019-06-27T01:14:09.445Z,-79
2019-06-27T01:15:10.171Z,-79
2019-06-27T01:16:11.180Z,-79
2019-06-27T01:17:19.325Z,-80
2019-06-27T01:19:29.649Z,-80
2019-06-27T01:20:28.308Z,-79
2019-06-27T01:21:26.392Z,-79
2019-06-27T01:22:24.330Z,-79
2019-06-27T01:23:23.073Z,-79
2019-06-27T01:24:21.035Z,-79
2019-06-27T01:25:18.707Z,-79
2019-06-27T01:26:17.434Z,-79
2019-06-27T01:27:29.583Z,-79
2019-06-27T01:27:30.039Z,-79
2019-06-27T01:27:30.318Z,-79
2019-06-27T01:28:15.381Z,-79
2019-06-27T01:29:20.775Z,-79
2019-06-27T01:30:19.540Z,-79
2019-06-27T01:31:14.593Z,-79
2019-06-27T01:33:22.416Z,-79
2019-06-27T01:34:22.131Z,-79
2019-06-27T01:35:32.157Z,-79
2019-06-27T01:36:31.144Z,-78
2019-06-27T01:37:32.246Z,-78
2019-06-27T01:38:30.943Z,-79
2019-06-27T01:39:28.631Z,-79
2019-06-27T01:40:28.562Z,-79
2019-06-27T01:41:37.071Z,-79
2019-06-27T01:42:35.236Z,-79
2019-06-27T01:43:30.138Z,-79
2019-06-27T01:45:39.175Z,-79
2019-06-27T01:46:38.803Z,-79
2019-06-27T01:47:38.427Z,-79
2019-06-27T01:48:40.186Z,-79
2019-06-27T01:49:38.031Z,-79
2019-06-27T01:50:36.030Z,-79
2019-06-27T01:51:51.307Z,-80
2019-06-27T01:52:51.907Z,-80
2019-06-27T01:53:52.176Z,-79
2019-06-27T01:54:56.535Z,-79
2019-06-27T01:55:52.623Z,-79
2019-06-27T01:56:55.573Z,-79
2019-06-27T01:57:50.719Z,-79
2019-06-27T01:58:48.478Z,-80
2019-06-27T02:01:04.087Z,-79
2019-06-27T02:02:02.697Z,-79
2019-06-27T02:03:03.054Z,-78
2019-06-27T02:04:04.430Z,-79
2019-06-27T02:05:04.477Z,-78
2019-06-27T02:06:06.741Z,-78
2019-06-27T02:07:05.343Z,-79
2019-06-27T02:08:04.230Z,-79
2019-06-27T02:09:13.061Z,-78
2019-06-27T02:10:16.276Z,-79
2019-06-27T02:12:30.083Z,-80
2019-06-27T02:13:27.816Z,-79
2019-06-27T02:14:28.300Z,-79
2019-06-27T02:15:33.367Z,-78
2019-06-27T02:16:37.792Z,-79
2019-06-27T02:17:36.344Z,-79
2019-06-27T02:18:40.918Z,-79
2019-06-27T02:19:38.630Z,-79
2019-06-27T02:20:38.816Z,-80
2019-06-27T02:21:37.555Z,-79
2019-06-27T02:22:38.244Z,-79
2019-06-27T02:24:48.165Z,-79
2019-06-27T02:25:50.007Z,-78
2019-06-27T02:26:50.559Z,-79
2019-06-27T02:28:05.286Z,-79
2019-06-27T02:29:06.587Z,-79
2019-06-27T02:30:08.040Z,-80
2019-06-27T02:31:05.758Z,-80
2019-06-27T02:32:03.592Z,-80
2019-06-27T02:33:14.454Z,-80
2019-06-27T02:34:11.766Z,-79
2019-06-27T02:36:21.857Z,-80
2019-06-27T02:37:24.065Z,-80
2019-06-27T02:38:22.425Z,-80
2019-06-27T02:39:20.083Z,-80
2019-06-27T02:40:24.994Z,-80
2019-06-27T02:41:24.918Z,-79
2019-06-27T02:42:27.357Z,-80
2019-06-27T02:43:30.295Z,-80
2019-06-27T02:44:29.447Z,-80
2019-06-27T02:45:27.119Z,-80
2019-06-27T02:46:23.123Z,-80
2019-06-27T02:48:42.825Z,-80
2019-06-27T02:49:42.552Z,-79
2019-06-27T02:50:43.540Z,-80
2019-06-27T02:51:43.847Z,-80
2019-06-27T02:52:41.443Z,-79
2019-06-27T02:53:44.158Z,-80
2019-06-27T02:54:47.004Z,-80
2019-06-27T02:55:48.174Z,-80
2019-06-27T02:56:46.232Z,-80
2019-06-27T02:57:45.738Z,-80
2019-06-27T02:58:43.418Z,-80
2019-06-27T02:59:42.329Z,-79
2019-06-27T03:00:40.325Z,-79
2019-06-27T03:03:13.199Z,-80
2019-06-27T03:04:12.778Z,-80
2019-06-27T03:05:13.325Z,-80
2019-06-27T03:06:11.737Z,-80
2019-06-27T03:07:06.462Z,-80
2019-06-27T03:08:07.779Z,-80
2019-06-27T03:09:09.323Z,-80
2019-06-27T03:10:07.690Z,-80
2019-06-27T03:11:04.011Z,-82
2019-06-27T03:12:01.892Z,-80
2019-06-27T03:13:03.141Z,-82
2019-06-27T03:14:06.157Z,-80
2019-06-27T03:16:16.078Z,-80
2019-06-27T03:17:17.789Z,-80
2019-06-27T03:18:16.871Z,-80
2019-06-27T03:19:15.305Z,-80
2019-06-27T03:20:16.090Z,-80
2019-06-27T03:21:12.666Z,-80
2019-06-27T03:22:17.458Z,-81
2019-06-27T03:23:12.362Z,-80
2019-06-27T03:24:12.726Z,-80
2019-06-27T03:25:10.650Z,-80
2019-06-27T03:27:24.871Z,-80
2019-06-27T03:33:46.348Z,-80
2019-06-27T03:34:46.578Z,-80
2019-06-27T03:35:49.442Z,-80
2019-06-27T03:36:48.603Z,-79
2019-06-27T03:43:08.390Z,-80
2019-06-27T03:44:08.789Z,-80
2019-06-27T03:45:13.796Z,-80
2019-06-27T03:45:16.048Z,-80
2019-06-27T03:46:10.325Z,-80
2019-06-27T03:47:12.428Z,-79
2019-06-27T03:48:17.424Z,-80
2019-06-27T03:49:18.577Z,-79
2019-06-27T03:50:17.373Z,-80
2019-06-27T03:51:16.449Z,-80
2019-06-27T03:52:13.992Z,-80
2019-06-27T03:53:26.437Z,-80
2019-06-27T03:55:32.505Z,-82
2019-06-27T03:56:30.150Z,-80
2019-06-27T03:57:44.260Z,-79
2019-06-27T03:57:45.644Z,-79
2019-06-27T03:58:39.653Z,-80
2019-06-27T03:59:37.051Z,-80
2019-06-27T04:00:32.090Z,-79
2019-06-27T04:01:34.695Z,-80
2019-06-27T04:02:32.055Z,-80
2019-06-27T04:03:26.662Z,-80
2019-06-27T04:04:27.932Z,-80
2019-06-27T04:06:40.307Z,-80
2019-06-27T04:07:42.718Z,-80
2019-06-27T04:08:42.183Z,-79
2019-06-27T04:09:39.950Z,-79
2019-06-27T04:10:38.961Z,-80
2019-06-27T04:11:40.024Z,-80
2019-06-27T04:12:42.348Z,-79
2019-06-27T04:13:44.499Z,-79
2019-06-27T04:14:51.413Z,-80
2019-06-27T04:15:23.958Z,-80
2019-06-27T04:16:24.442Z,-80
2019-06-27T04:17:26.814Z,-79
2019-06-27T04:18:22.860Z,-80
2019-06-27T04:19:26.271Z,-80
2019-06-27T04:20:21.879Z,-80
2019-06-27T04:22:33.411Z,-80
2019-06-27T04:23:32.569Z,-80
2019-06-27T04:24:33.090Z,-80
2019-06-27T04:25:36.347Z,-80
2019-06-27T04:26:32.705Z,-80
2019-06-27T04:27:35.063Z,-81
2019-06-27T04:28:34.747Z,-80
2019-06-27T04:29:34.685Z,-80
2019-06-27T04:30:36.174Z,-79
2019-06-27T04:31:41.657Z,-80
2019-06-27T04:32:39.104Z,-80
2019-06-27T04:33:39.311Z,-79
2019-06-27T04:34:35.300Z,-80
2019-06-27T04:35:37.992Z,-80
2019-06-27T04:37:49.804Z,-80
2019-06-27T04:38:53.575Z,-80
2019-06-27T04:39:55.481Z,-80
2019-06-27T04:40:55.849Z,-80
2019-06-27T04:41:54.720Z,-80
2019-06-27T04:42:52.674Z,-80
2019-06-27T04:43:47.913Z,-80
2019-06-27T04:44:48.974Z,-81
2019-06-27T04:46:00.530Z,-80
2019-06-27T04:47:02.331Z,-80
2019-06-27T04:47:57.914Z,-80
2019-06-27T04:48:58.486Z,-80
2019-06-27T04:49:57.804Z,-80
2019-06-27T04:50:53.909Z,-80
2019-06-27T04:53:00.936Z,-80
2019-06-27T04:54:01.589Z,-80
2019-06-27T04:55:03.940Z,-80
2019-06-27T04:56:01.564Z,-80
2019-06-27T04:57:04.956Z,-80
2019-06-27T04:58:02.691Z,-79
2019-06-27T04:59:02.912Z,-80
2019-06-27T05:00:04.709Z,-80
2019-06-27T05:01:04.142Z,-80
2019-06-27T05:02:02.306Z,-80
2019-06-27T05:04:09.633Z,-80
2019-06-27T05:05:07.276Z,-79
2019-06-27T05:06:11.138Z,-80
2019-06-27T05:07:12.245Z,-80
2019-06-27T05:08:14.266Z,-80
2019-06-27T05:09:09.358Z,-79
2019-06-27T05:10:08.251Z,-80
2019-06-27T05:11:11.449Z,-80
2019-06-27T05:12:17.075Z,-79
2019-06-27T05:13:19.391Z,-79
2019-06-27T05:14:17.310Z,-80
2019-06-27T05:16:29.456Z,-80
2019-06-27T05:17:27.981Z,-79
2019-06-27T05:18:26.217Z,-79
2019-06-27T05:19:28.522Z,-79
2019-06-27T05:20:26.717Z,-80
2019-06-27T05:21:26.451Z,-80
2019-06-27T05:22:30.211Z,-80
2019-06-27T05:23:27.977Z,-80
2019-06-27T05:24:23.886Z,-79
2019-06-27T05:25:32.761Z,-80
2019-06-27T05:26:26.196Z,-80
2019-06-27T05:27:25.851Z,-80
2019-06-27T05:29:33.869Z,-80
2019-06-27T05:30:34.124Z,-79
2019-06-27T05:31:35.235Z,-79
2019-06-27T05:32:39.538Z,-80
2019-06-27T05:33:42.725Z,-80
2019-06-27T05:34:52.715Z,-80
2019-06-27T05:35:52.080Z,-79
2019-06-27T05:36:53.236Z,-80
2019-06-27T05:37:50.111Z,-80
2019-06-27T05:38:51.498Z,-80
2019-06-27T05:39:54.899Z,-80
2019-06-27T05:40:53.501Z,-80
2019-06-27T05:43:08.668Z,-79
2019-06-27T05:44:06.705Z,-80
2019-06-27T05:45:02.255Z,-80
2019-06-27T05:46:03.021Z,-81
2019-06-27T05:47:03.940Z,-80
2019-06-27T05:48:04.368Z,-79
2019-06-27T05:49:05.563Z,-79
2019-06-27T05:50:03.204Z,-79
2019-06-27T05:51:00.934Z,-79
2019-06-27T05:51:58.039Z,-80
2019-06-27T05:53:02.081Z,-79
2019-06-27T05:53:54.663Z,-80
2019-06-27T05:54:53.237Z,-79
2019-06-27T05:55:50.892Z,-79
2019-06-27T05:56:48.393Z,-79
2019-06-27T05:58:59.707Z,-79
2019-06-27T06:00:01.931Z,-79
2019-06-27T06:01:01.423Z,-79
2019-06-27T06:01:59.154Z,-79
2019-06-27T06:03:02.421Z,-79
2019-06-27T06:04:01.758Z,-79
2019-06-27T06:05:00.018Z,-80
2019-06-27T06:05:59.746Z,-79
2019-06-27T06:07:01.572Z,-79
2019-06-27T06:07:59.891Z,-79
2019-06-27T06:10:19.382Z,-79
2019-06-27T06:11:19.105Z,-79
2019-06-27T06:12:20.346Z,-79
2019-06-27T06:13:16.386Z,-78
2019-06-27T06:14:14.770Z,-79
2019-06-27T06:15:12.721Z,-79
2019-06-27T06:16:14.723Z,-79
2019-06-27T06:17:12.670Z,-79
2019-06-27T06:18:09.474Z,-79
2019-06-27T06:19:14.318Z,-79
2019-06-27T06:20:14.674Z,-79
2019-06-27T06:22:24.293Z,-80
2019-06-27T06:23:28.500Z,-79
2019-06-27T06:24:26.966Z,-79
2019-06-27T06:25:24.672Z,-79
2019-06-27T06:26:24.492Z,-80
2019-06-27T06:27:22.823Z,-79
2019-06-27T06:28:21.722Z,-79
2019-06-27T06:29:24.788Z,-79
2019-06-27T06:30:43.378Z,-79
2019-06-27T06:30:43.745Z,-79
2019-06-27T06:30:44.478Z,-79
2019-06-27T06:31:28.693Z,-79
2019-06-27T06:32:27.792Z,-80
2019-06-27T06:33:33.434Z,-79
2019-06-27T06:34:31.178Z,-79
2019-06-27T06:35:38.385Z,-79
2019-06-27T06:36:33.179Z,-79
2019-06-27T06:37:34.049Z,-79
2019-06-27T06:38:35.096Z,-79
2019-06-27T06:39:33.550Z,-79
2019-06-27T06:40:34.014Z,-79
2019-06-27T06:41:31.317Z,-79
2019-06-27T06:42:39.793Z,-80
2019-06-27T06:43:39.761Z,-79
2019-06-27T06:44:40.303Z,-78
2019-06-27T06:46:58.360Z,-80
2019-06-27T06:47:56.729Z,-79
2019-06-27T06:48:57.027Z,-78
2019-06-27T06:49:55.714Z,-80
2019-06-27T06:50:53.494Z,-80
2019-06-27T06:51:55.739Z,-79
2019-06-27T06:53:02.100Z,-79
2019-06-27T06:54:01.602Z,-79
2019-06-27T06:55:03.729Z,-79
2019-06-27T06:56:03.851Z,-79
2019-06-27T06:58:13.203Z,-79
2019-06-27T06:59:19.375Z,-80
2019-06-27T07:00:17.171Z,-79
2019-06-27T07:01:22.749Z,-79
2019-06-27T07:02:22.372Z,-79
2019-06-27T07:03:21.828Z,-80
2019-06-27T07:04:19.739Z,-79
2019-06-27T07:05:16.085Z,-79
2019-06-27T07:06:14.185Z,-79
2019-06-27T07:08:26.782Z,-80
2019-06-27T07:09:26.564Z,-79
2019-06-27T07:10:37.574Z,-79
2019-06-27T07:11:37.165Z,-79
2019-06-27T07:12:35.779Z,-81
2019-06-27T07:13:39.152Z,-80
2019-06-27T07:14:48.602Z,-80
2019-06-27T07:15:51.472Z,-79
2019-06-27T07:16:49.251Z,-80
2019-06-27T07:17:52.925Z,-80
2019-06-27T07:20:00.689Z,-79
2019-06-27T07:20:59.297Z,-80
2019-06-27T07:21:57.434Z,-79
2019-06-27T07:22:58.781Z,-79
2019-06-27T07:24:01.438Z,-79
2019-06-27T07:25:07.052Z,-80
2019-06-27T07:26:07.564Z,-79
2019-06-27T07:27:05.835Z,-79
2019-06-27T07:28:00.762Z,-79
2019-06-27T07:30:07.599Z,-80
2019-06-27T07:31:17.418Z,-82
2019-06-27T07:31:17.895Z,-82
2019-06-27T07:31:18.092Z,-82
2019-06-27T07:32:02.136Z,-81
2019-06-27T07:33:04.041Z,-81
2019-06-27T07:34:02.437Z,-81
2019-06-27T07:35:02.826Z,-81
2019-06-27T07:36:08.526Z,-81
2019-06-27T07:37:06.475Z,-81
2019-06-27T07:38:09.276Z,-81
2019-06-27T07:39:05.328Z,-82
2019-06-27T07:41:13.010Z,-81
2019-06-27T07:42:11.549Z,-81
2019-06-27T07:43:10.274Z,-80
2019-06-27T07:44:09.160Z,-81
2019-06-27T07:45:07.575Z,-81
2019-06-27T07:46:05.364Z,-80
2019-06-27T07:47:07.956Z,-81
2019-06-27T07:48:08.953Z,-80
2019-06-27T07:49:05.852Z,-81
2019-06-27T07:51:14.782Z,-82
2019-06-27T07:52:18.209Z,-80
2019-06-27T07:53:18.824Z,-81
2019-06-27T07:54:21.148Z,-81
2019-06-27T07:55:20.442Z,-81
2019-06-27T07:56:18.655Z,-80
2019-06-27T07:57:17.179Z,-81
2019-06-27T07:58:15.144Z,-81
2019-06-27T07:59:16.532Z,-79
2019-06-27T08:00:18.565Z,-81
2019-06-27T08:01:34.146Z,-81
2019-06-27T08:01:35.075Z,-81
2019-06-27T08:02:16.563Z,-80
2019-06-27T08:03:19.461Z,-81
2019-06-27T08:04:21.015Z,-81
2019-06-27T08:05:20.264Z,-79
2019-06-27T08:06:18.088Z,-81
2019-06-27T08:08:28.360Z,-80
2019-06-27T08:09:26.630Z,-80
2019-06-27T08:10:22.683Z,-80
2019-06-27T08:11:23.097Z,-80
2019-06-27T08:12:21.477Z,-80
2019-06-27T08:13:18.847Z,-80
2019-06-27T08:14:14.277Z,-80
2019-06-27T08:15:15.503Z,-81
2019-06-27T08:16:15.896Z,-80
2019-06-27T08:17:17.786Z,-81
2019-06-27T08:19:34.566Z,-81
2019-06-27T08:20:34.071Z,-81
2019-06-27T08:21:34.724Z,-80
2019-06-27T08:22:33.716Z,-81
2019-06-27T08:23:41.649Z,-80
2019-06-27T08:23:41.802Z,-80
2019-06-27T08:24:34.547Z,-80
2019-06-27T08:25:32.642Z,-80
2019-06-27T08:26:30.504Z,-82
2019-06-27T08:27:31.830Z,-83
2019-06-27T08:28:29.406Z,-82
2019-06-27T08:29:30.465Z,-82
2019-06-27T08:30:28.960Z,-82
2019-06-27T08:32:38.355Z,-82
2019-06-27T08:33:37.111Z,-82
2019-06-27T08:34:36.032Z,-81
2019-06-27T08:35:34.382Z,-81
2019-06-27T08:36:41.163Z,-81
2019-06-27T08:37:46.351Z,-81
2019-06-27T08:38:41.800Z,-81
2019-06-27T08:39:45.401Z,-82
2019-06-27T08:40:43.568Z,-82
2019-06-27T08:41:41.879Z,-81
2019-06-27T08:43:56.490Z,-81
2019-06-27T08:44:57.415Z,-81
2019-06-27T08:45:56.135Z,-81
2019-06-27T08:46:59.984Z,-82
2019-06-27T08:48:01.304Z,-81
2019-06-27T08:49:00.002Z,-82
2019-06-27T08:49:55.259Z,-81
2019-06-27T08:50:56.600Z,-82
2019-06-27T08:51:58.364Z,-81
2019-06-27T08:53:01.102Z,-82
2019-06-27T08:53:52.735Z,-82
2019-06-27T08:55:59.923Z,-82
2019-06-27T08:56:57.854Z,-81
2019-06-27T08:57:59.919Z,-81
2019-06-27T08:58:58.085Z,-82
2019-06-27T08:59:57.100Z,-82
2019-06-27T09:00:57.662Z,-82
2019-06-27T09:02:08.307Z,-81
2019-06-27T09:02:09.343Z,-81
2019-06-27T09:03:00.695Z,-81
2019-06-27T09:04:01.513Z,-82
2019-06-27T09:05:01.673Z,-81
2019-06-27T09:06:04.380Z,-81
2019-06-27T09:06:59.363Z,-81
2019-06-27T09:09:11.483Z,-82
2019-06-27T09:10:09.990Z,-81
2019-06-27T09:11:05.061Z,-82
2019-06-27T09:12:10.263Z,-82
2019-06-27T09:13:12.514Z,-81
2019-06-27T09:14:12.531Z,-82
2019-06-27T09:15:11.170Z,-81
2019-06-27T09:16:10.278Z,-81
2019-06-27T09:17:07.834Z,-81
2019-06-27T09:18:04.518Z,-80
2019-06-27T09:19:09.693Z,-82
2019-06-27T09:20:02.423Z,-81
2019-06-27T09:22:12.024Z,-82
2019-06-27T09:23:09.993Z,-81
2019-06-27T09:24:13.220Z,-81
2019-06-27T09:25:13.660Z,-82
2019-06-27T09:26:11.476Z,-81
2019-06-27T09:27:11.015Z,-81
2019-06-27T09:28:07.713Z,-81
2019-06-27T09:29:08.973Z,-83
2019-06-27T09:30:05.546Z,-82
2019-06-27T09:31:06.694Z,-81
2019-06-27T09:32:25.377Z,-82
2019-06-27T09:32:25.921Z,-82
2019-06-27T09:33:11.740Z,-82
2019-06-27T09:34:08.767Z,-83
2019-06-27T09:36:34.631Z,-84
2019-06-27T09:37:35.898Z,-83
2019-06-27T09:38:34.170Z,-83
2019-06-27T09:39:31.791Z,-83
2019-06-27T09:40:30.195Z,-82
2019-06-27T09:41:33.773Z,-81
2019-06-27T09:42:33.336Z,-81
2019-06-27T09:43:31.160Z,-80
2019-06-27T09:44:28.981Z,-81
2019-06-27T09:45:24.882Z,-81
2019-06-27T09:47:36.278Z,-81
2019-06-27T09:48:34.400Z,-81
2019-06-27T09:49:36.503Z,-81
2019-06-27T09:50:34.611Z,-81
2019-06-27T09:51:32.375Z,-81
2019-06-27T09:52:28.168Z,-81
2019-06-27T09:53:28.610Z,-80
2019-06-27T09:54:27.489Z,-81
2019-06-27T09:55:23.508Z,-81
2019-06-27T09:57:39.267Z,-81
2019-06-27T09:58:40.381Z,-81
2019-06-27T09:59:38.199Z,-83
2019-06-27T10:00:32.901Z,-81
2019-06-27T10:01:35.361Z,-82
2019-06-27T10:02:42.067Z,-81
2019-06-27T10:03:40.124Z,-80
2019-06-27T10:04:37.607Z,-81
2019-06-27T10:05:34.903Z,-80
2019-06-27T10:06:33.360Z,-81
2019-06-27T10:07:30.912Z,-81
2019-06-27T10:09:37.251Z,-81
2019-06-27T10:10:36.597Z,-81
2019-06-27T10:11:34.052Z,-81
2019-06-27T10:12:42.165Z,-82
2019-06-27T10:12:42.728Z,-82
2019-06-27T10:13:32.480Z,-81
2019-06-27T10:14:32.933Z,-81
2019-06-27T10:15:30.906Z,-81
2019-06-27T10:16:29.483Z,-81
2019-06-27T10:17:27.777Z,-81
2019-06-27T10:18:29.680Z,-81
2019-06-27T10:19:27.765Z,-81
2019-06-27T10:21:47.366Z,-81
2019-06-27T10:22:45.770Z,-80
2019-06-27T10:23:44.351Z,-80
2019-06-27T10:24:42.104Z,-81
2019-06-27T10:25:42.601Z,-80
2019-06-27T10:26:42.422Z,-80
2019-06-27T10:27:41.576Z,-81
2019-06-27T10:28:39.160Z,-81
2019-06-27T10:29:38.957Z,-80
2019-06-27T10:30:39.377Z,-81
2019-06-27T10:31:36.783Z,-81
2019-06-27T10:32:31.890Z,-81
2019-06-27T10:33:32.643Z,-81
2019-06-27T10:35:42.276Z,-81
2019-06-27T10:36:42.804Z,-81
2019-06-27T10:37:44.204Z,-81
2019-06-27T10:38:43.629Z,-80
2019-06-27T10:39:51.768Z,-81
2019-06-27T10:40:53.090Z,-80
2019-06-27T10:41:51.767Z,-81
2019-06-27T10:42:49.721Z,-80
2019-06-27T10:43:48.683Z,-81
2019-06-27T10:44:49.547Z,-80
2019-06-27T10:45:47.383Z,-81
2019-06-27T10:46:51.748Z,-82
2019-06-27T10:47:50.026Z,-84
2019-06-27T10:48:53.864Z,-83
2019-06-27T10:51:06.138Z,-85
2019-06-27T10:52:10.122Z,-84
2019-06-27T10:53:12.533Z,-83
2019-06-27T10:53:58.441Z,-85
2019-06-27T10:54:57.425Z,-84
2019-06-27T10:55:56.116Z,-84
2019-06-27T10:56:55.056Z,-87
2019-06-27T10:57:55.905Z,-84
2019-06-27T10:58:51.847Z,-85
2019-06-27T10:59:49.285Z,-84
2019-06-27T11:03:42.616Z,-80
2019-06-27T11:04:40.622Z,-80
2019-06-27T11:05:41.976Z,-79
2019-06-27T11:06:38.687Z,-78
2019-06-27T11:07:35.382Z,-79
2019-06-27T11:08:32.892Z,-80
2019-06-27T11:09:38.102Z,-79
2019-06-27T11:10:40.111Z,-79
2019-06-27T11:11:37.253Z,-79
2019-06-27T11:13:58.693Z,-80
2019-06-27T11:13:59.546Z,-80
2019-06-27T11:14:59.315Z,-79
2019-06-27T11:15:00.007Z,-79
2019-06-27T11:15:59.887Z,-79
2019-06-27T11:16:59.207Z,-79
2019-06-27T11:18:00.803Z,-80
2019-06-27T11:19:11.355Z,-79
2019-06-27T11:20:14.979Z,-79
2019-06-27T11:21:13.800Z,-79
2019-06-27T11:22:10.719Z,-80
2019-06-27T11:23:18.165Z,-79
2019-06-27T11:24:14.040Z,-79
2019-06-27T11:25:11.768Z,-79
2019-06-27T11:26:19.660Z,-79
2019-06-27T11:27:14.831Z,-80
2019-06-27T11:28:15.680Z,-79
2019-06-27T11:30:28.587Z,-79
2019-06-27T11:31:27.429Z,-79
2019-06-27T11:32:33.647Z,-79
2019-06-27T11:33:36.143Z,-79
2019-06-27T11:34:35.403Z,-79
2019-06-27T11:35:34.634Z,-79
2019-06-27T11:36:32.650Z,-79
2019-06-27T11:37:33.247Z,-80
2019-06-27T11:38:35.118Z,-79
2019-06-27T11:39:36.319Z,-79
2019-06-27T11:40:35.908Z,-80
2019-06-27T11:41:39.438Z,-79
2019-06-27T11:44:01.193Z,-79
2019-06-27T11:46:47.978Z,-79
2019-06-27T11:47:46.519Z,-80
2019-06-27T11:48:44.053Z,-79
2019-06-27T11:49:46.388Z,-80
2019-06-27T11:50:50.065Z,-80
2019-06-27T11:51:44.584Z,-79
2019-06-27T11:52:47.176Z,-81
2019-06-27T11:53:47.748Z,-79
2019-06-27T11:54:45.525Z,-80
2019-06-27T11:55:40.321Z,-79
2019-06-27T11:56:34.799Z,-80
2019-06-27T11:57:39.187Z,-79
2019-06-27T11:58:33.682Z,-78
2019-06-27T11:59:36.896Z,-80
2019-06-27T12:00:40.651Z,-82
2019-06-27T12:01:46.400Z,-82
2019-06-27T12:02:42.405Z,-81
2019-06-27T12:03:49.418Z,-81
2019-06-27T12:03:49.758Z,-81
2019-06-27T12:04:45.950Z,-83
2019-06-27T12:05:44.880Z,-80
2019-06-27T12:06:41.204Z,-81
2019-06-27T12:07:35.944Z,-81
2019-06-27T12:08:57.075Z,-80
2019-06-27T12:09:50.731Z,-80
2019-06-27T12:10:48.790Z,-80
2019-06-27T12:11:51.378Z,-80
2019-06-27T12:12:47.831Z,-81
2019-06-27T12:13:50.682Z,-82
2019-06-27T12:14:53.019Z,-81
2019-06-27T12:15:51.999Z,-83
2019-06-27T12:16:52.263Z,-80
2019-06-27T12:17:51.743Z,-81
2019-06-27T12:19:54.517Z,-82
2019-06-27T12:20:54.585Z,-82
2019-06-27T12:21:53.771Z,-82
2019-06-27T12:22:53.271Z,-78
2019-06-27T12:23:54.593Z,-79
2019-06-27T12:24:52.447Z,-79
2019-06-27T14:16:46.215Z,-43
2019-06-27T14:17:46.177Z,-40
2019-06-27T14:18:44.187Z,-39
2019-06-27T14:19:41.980Z,-39
2019-06-27T14:20:41.655Z,-39
2019-06-27T14:21:39.289Z,-39
2019-06-27T14:22:37.100Z,-40
2019-06-27T14:23:35.806Z,-39
2019-06-27T14:24:33.940Z,-40
2019-06-27T14:25:31.741Z,-43
2019-06-27T14:26:29.699Z,-41
2019-06-27T14:27:39.484Z,-40
2019-06-27T14:28:37.015Z,-39
2019-06-27T14:29:34.911Z,-39
2019-06-27T14:30:34.596Z,-40
2019-06-27T14:31:33.662Z,-40
2019-06-27T14:32:31.053Z,-40
2019-06-27T14:33:29.795Z,-41
2019-06-27T14:34:27.606Z,-40
2019-06-27T14:35:25.286Z,-40
2019-06-27T14:36:23.666Z,-40
2019-06-27T14:37:22.347Z,-41
2019-06-27T14:38:19.773Z,-42
2019-06-27T14:39:17.453Z,-40
2019-06-27T14:40:14.846Z,-40
2019-06-27T14:41:13.642Z,-41
2019-06-27T14:42:12.317Z,-39
2019-06-27T14:43:09.908Z,-39
2019-06-27T14:44:07.481Z,-40
2019-06-27T14:45:04.912Z,-42
2019-06-27T14:46:02.692Z,-39
2019-06-27T14:47:00.550Z,-40
2019-06-27T14:47:58.097Z,-40
2019-06-27T14:48:57.162Z,-41
2019-06-27T14:49:55.154Z,-41
2019-06-27T14:50:53.227Z,-39
2019-06-27T14:51:51.228Z,-41
2019-06-27T14:52:49.322Z,-40
2019-06-27T14:53:47.848Z,-39
2019-06-27T14:54:47.377Z,-42
2019-06-27T14:55:43.731Z,-42
2019-06-27T14:56:41.588Z,-43
2019-06-27T14:57:39.065Z,-40
2019-06-27T14:58:36.889Z,-40
2019-06-27T14:59:34.701Z,-40
2019-06-27T15:00:34.009Z,-40
2019-06-27T15:01:32.283Z,-41
2019-06-27T15:02:30.113Z,-40
2019-06-27T15:03:32.794Z,-40
2019-06-27T15:04:30.171Z,-40
2019-06-27T15:05:33.204Z,-40
2019-06-27T15:05:33.781Z,-40
2019-06-27T15:06:26.729Z,-40
2019-06-27T15:07:24.751Z,-40
2019-06-27T15:08:22.757Z,-40
2019-06-27T15:09:26.759Z,-40
2019-06-27T15:10:24.734Z,-40
2019-06-27T15:11:23.294Z,-40
2019-06-27T15:12:21.548Z,-40
2019-06-27T15:13:19.003Z,-41
2019-06-27T15:23:56.727Z,-41
2019-06-27T15:24:54.633Z,-39
2019-06-27T15:25:51.445Z,-41
2019-06-27T15:26:50.697Z,-40
2019-06-27T15:29:33.509Z,-43
2019-06-27T15:30:31.242Z,-40
2019-06-27T15:39:56.084Z,-41
2019-06-27T15:40:55.574Z,-39
2019-06-27T15:49:35.981Z,-41
2019-06-27T15:50:33.431Z,-41
2019-06-27T15:58:31.351Z,-41
2019-06-27T15:59:27.704Z,-40
2019-06-27T16:00:24.255Z,-39
2019-06-27T16:01:23.563Z,-40
2019-06-27T16:02:18.524Z,-40
2019-06-27T16:05:25.240Z,-43
2019-06-27T16:06:25.167Z,-42
2019-06-27T16:07:24.416Z,-41
2019-06-27T16:12:13.304Z,-42
2019-06-27T16:13:13.940Z,-40
2019-06-27T16:14:24.571Z,-41
2019-06-27T16:15:24.877Z,-41
2019-06-27T16:16:25.481Z,-40
2019-06-27T16:17:25.781Z,-43
2019-06-27T16:18:33.310Z,-42
2019-06-27T16:19:38.879Z,-41
2019-06-27T16:20:39.283Z,-45
2019-06-27T16:21:40.618Z,-40
2019-06-27T16:22:49.849Z,-41
2019-06-27T16:23:50.176Z,-41
2019-06-27T16:24:51.283Z,-42
2019-06-27T16:25:53.383Z,-40
2019-06-27T16:26:54.623Z,-39
2019-06-27T16:27:56.908Z,-41
2019-06-27T16:28:56.300Z,-42
2019-06-27T16:29:55.795Z,-41
2019-06-27T16:30:58.758Z,-40
2019-06-27T16:32:00.629Z,-41
2019-06-27T16:33:04.089Z,-40
2019-06-27T16:34:07.192Z,-42
2019-06-27T16:35:07.887Z,-41
2019-06-27T16:36:24.491Z,-41
2019-06-27T16:36:24.822Z,-41
2019-06-27T16:36:25.394Z,-41
2019-06-27T16:37:11.394Z,-42
2019-06-27T16:38:14.037Z,-42
2019-06-27T16:39:19.890Z,-40
2019-06-27T16:40:22.105Z,-42
2019-06-27T16:41:28.340Z,-41
2019-06-27T16:42:32.703Z,-41
2019-06-27T16:43:35.255Z,-41
2019-06-27T16:44:36.665Z,-41
2019-06-27T16:45:40.445Z,-40
2019-06-27T16:46:38.851Z,-42
2019-06-27T16:47:40.470Z,-42
2019-06-27T16:48:40.211Z,-41
2019-06-27T16:49:43.263Z,-42
2019-06-27T16:50:42.915Z,-43
2019-06-27T16:51:42.761Z,-41
2019-06-27T16:52:47.089Z,-39
2019-06-27T16:53:47.122Z,-41
2019-06-27T16:54:51.846Z,-40
2019-06-27T16:55:52.711Z,-40
2019-06-27T16:56:52.298Z,-41
2019-06-27T16:57:52.043Z,-42
2019-06-27T16:58:52.628Z,-40
2019-06-27T16:59:55.152Z,-40
2019-06-27T17:00:56.245Z,-40
2019-06-27T17:01:59.264Z,-41
2019-06-27T17:03:02.086Z,-41
2019-06-27T17:04:02.060Z,-41
2019-06-27T17:05:03.012Z,-40
2019-06-27T17:06:02.794Z,-40
2019-06-27T17:07:06.251Z,-41
2019-06-27T17:08:11.403Z,-41
2019-06-27T17:09:11.716Z,-41
2019-06-27T17:10:15.642Z,-41
2019-06-27T17:11:19.033Z,-41
2019-06-27T17:12:36.555Z,-37
2019-06-27T17:13:41.047Z,-40
2019-06-27T17:14:41.206Z,-41
2019-06-27T17:15:42.213Z,-41
2019-06-27T17:16:44.571Z,-41
2019-06-27T17:17:44.137Z,-41
2019-06-27T17:18:44.878Z,-42
2019-06-27T17:19:45.011Z,-40
2019-06-27T17:20:47.108Z,-40
2019-06-27T17:21:50.329Z,-40
2019-06-27T17:22:57.870Z,-41
2019-06-27T17:24:03.202Z,-41
2019-06-27T17:25:05.011Z,-41
2019-06-27T17:26:11.149Z,-41
2019-06-27T17:26:11.673Z,-41
2019-06-27T17:27:06.218Z,-41
2019-06-27T17:28:06.636Z,-41